sensor_id;sensor_type;location;lat;lon;timestamp;temperature;humidity
8711;DHT22;4392;47.400;8.062;2022-09-12T00:00:45;21.10;90.70
8711;DHT22;4392;47.400;8.062;2022-09-12T00:03:11;21.10;90.70
8711;DHT22;4392;47.400;8.062;2022-09-12T00:05:44;21.10;90.70
8711;DHT22;4392;47.400;8.062;2022-09-12T00:08:11;21.10;90.70
8711;DHT22;4392;47.400;8.062;2022-09-12T00:10:41;21.10;90.50
8711;DHT22;4392;47.400;8.062;2022-09-12T00:13:08;21.10;90.40
8711;DHT22;4392;47.400;8.062;2022-09-12T00:15:42;21.10;90.30
8711;DHT22;4392;47.400;8.062;2022-09-12T00:18:11;21.10;90.30
8711;DHT22;4392;47.400;8.062;2022-09-12T00:20:44;21.10;90.20
8711;DHT22;4392;47.400;8.062;2022-09-12T00:23:10;21.10;90.10
8711;DHT22;4392;47.400;8.062;2022-09-12T00:25:47;21.10;90.10
8711;DHT22;4392;47.400;8.062;2022-09-12T00:28:14;21.10;90.10
8711;DHT22;4392;47.400;8.062;2022-09-12T00:30:47;21.10;90.10
8711;DHT22;4392;47.400;8.062;2022-09-12T00:33:14;21.10;90.00
8711;DHT22;4392;47.400;8.062;2022-09-12T00:35:48;21.10;90.10
8711;DHT22;4392;47.400;8.062;2022-09-12T00:38:15;21.10;90.10
8711;DHT22;4392;47.400;8.062;2022-09-12T00:40:41;21.00;90.10
8711;DHT22;4392;47.400;8.062;2022-09-12T00:45:52;21.00;89.90
8711;DHT22;4392;47.400;8.062;2022-09-12T00:48:27;21.10;89.90
8711;DHT22;4392;47.400;8.062;2022-09-12T00:50:55;21.10;89.60
8711;DHT22;4392;47.400;8.062;2022-09-12T00:53:21;21.00;89.40
8711;DHT22;4392;47.400;8.062;2022-09-12T00:55:49;21.00;89.40
8711;DHT22;4392;47.400;8.062;2022-09-12T00:58:24;21.00;89.40
8711;DHT22;4392;47.400;8.062;2022-09-12T01:00:52;21.00;89.30
8711;DHT22;4392;47.400;8.062;2022-09-12T01:03:19;21.00;89.50
8711;DHT22;4392;47.400;8.062;2022-09-12T01:05:56;21.00;89.60
8711;DHT22;4392;47.400;8.062;2022-09-12T01:08:25;20.90;89.70
8711;DHT22;4392;47.400;8.062;2022-09-12T01:10:51;20.90;89.70
8711;DHT22;4392;47.400;8.062;2022-09-12T01:13:17;20.90;89.60
8711;DHT22;4392;47.400;8.062;2022-09-12T01:15:43;20.90;89.00
8711;DHT22;4392;47.400;8.062;2022-09-12T01:27:17;20.90;90.40
8711;DHT22;4392;47.400;8.062;2022-09-12T01:29:48;20.90;89.70
8711;DHT22;4392;47.400;8.062;2022-09-12T01:32:22;20.80;89.70
8711;DHT22;4392;47.400;8.062;2022-09-12T01:40:48;20.70;88.10
8711;DHT22;4392;47.400;8.062;2022-09-12T01:43:31;20.10;90.10
8711;DHT22;4392;47.400;8.062;2022-09-12T01:46:10;19.70;91.10
8711;DHT22;4392;47.400;8.062;2022-09-12T01:48:45;19.50;92.40
8711;DHT22;4392;47.400;8.062;2022-09-12T01:51:17;19.30;93.00
8711;DHT22;4392;47.400;8.062;2022-09-12T01:53:50;19.20;93.80
8711;DHT22;4392;47.400;8.062;2022-09-12T01:56:26;19.00;94.70
8711;DHT22;4392;47.400;8.062;2022-09-12T01:59:24;18.90;95.80
8711;DHT22;4392;47.400;8.062;2022-09-12T02:02:06;18.80;96.70
8711;DHT22;4392;47.400;8.062;2022-09-12T02:04:49;18.70;97.20
8711;DHT22;4392;47.400;8.062;2022-09-12T02:07:43;18.70;97.90
8711;DHT22;4392;47.400;8.062;2022-09-12T02:10:22;18.60;98.00
8711;DHT22;4392;47.400;8.062;2022-09-12T02:12:58;18.60;98.50
8711;DHT22;4392;47.400;8.062;2022-09-12T02:15:33;18.50;99.10
8711;DHT22;4392;47.400;8.062;2022-09-12T02:18:04;18.40;99.50
8711;DHT22;4392;47.400;8.062;2022-09-12T02:20:33;18.30;99.90
8711;DHT22;4392;47.400;8.062;2022-09-12T02:23:02;18.30;99.90
8711;DHT22;4392;47.400;8.062;2022-09-12T02:25:33;18.30;99.90
8711;DHT22;4392;47.400;8.062;2022-09-12T02:28:16;18.20;99.90
8711;DHT22;4392;47.400;8.062;2022-09-12T02:31:00;18.20;99.90
8711;DHT22;4392;47.400;8.062;2022-09-12T02:33:45;18.20;99.90
8711;DHT22;4392;47.400;8.062;2022-09-12T02:37:01;18.20;99.90
8711;DHT22;4392;47.400;8.062;2022-09-12T02:39:28;18.20;99.90
8711;DHT22;4392;47.400;8.062;2022-09-12T02:41:56;18.10;99.90
8711;DHT22;4392;47.400;8.062;2022-09-12T02:44:24;18.10;99.90
8711;DHT22;4392;47.400;8.062;2022-09-12T02:46:55;18.00;99.90
8711;DHT22;4392;47.400;8.062;2022-09-12T02:49:23;18.00;99.90
8711;DHT22;4392;47.400;8.062;2022-09-12T02:51:50;18.00;99.90
8711;DHT22;4392;47.400;8.062;2022-09-12T02:54:17;17.90;99.90
8711;DHT22;4392;47.400;8.062;2022-09-12T02:56:44;17.90;99.90
8711;DHT22;4392;47.400;8.062;2022-09-12T02:59:18;17.90;99.90
8711;DHT22;4392;47.400;8.062;2022-09-12T03:01:55;17.90;99.90
8711;DHT22;4392;47.400;8.062;2022-09-12T03:07:39;17.80;99.90
8711;DHT22;4392;47.400;8.062;2022-09-12T03:18:30;17.70;99.90
8711;DHT22;4392;47.400;8.062;2022-09-12T03:24:13;17.60;99.90
8711;DHT22;4392;47.400;8.062;2022-09-12T03:26:54;17.60;99.90
8711;DHT22;4392;47.400;8.062;2022-09-12T03:29:24;17.60;99.90
8711;DHT22;4392;47.400;8.062;2022-09-12T03:31:53;17.60;99.90
8711;DHT22;4392;47.400;8.062;2022-09-12T03:34:20;17.60;99.90
8711;DHT22;4392;47.400;8.062;2022-09-12T03:36:46;17.60;99.90
8711;DHT22;4392;47.400;8.062;2022-09-12T03:39:12;17.50;99.90
8711;DHT22;4392;47.400;8.062;2022-09-12T03:41:38;17.50;99.90
8711;DHT22;4392;47.400;8.062;2022-09-12T03:44:04;17.50;99.90
8711;DHT22;4392;47.400;8.062;2022-09-12T03:46:30;17.40;99.90
8711;DHT22;4392;47.400;8.062;2022-09-12T03:48:56;17.40;99.90
8711;DHT22;4392;47.400;8.062;2022-09-12T03:51:22;17.40;99.90
8711;DHT22;4392;47.400;8.062;2022-09-12T03:53:48;17.40;99.90
8711;DHT22;4392;47.400;8.062;2022-09-12T03:56:14;17.40;99.90
8711;DHT22;4392;47.400;8.062;2022-09-12T03:58:40;17.30;99.90
8711;DHT22;4392;47.400;8.062;2022-09-12T04:01:10;17.30;99.90
8711;DHT22;4392;47.400;8.062;2022-09-12T04:03:41;17.30;99.90
8711;DHT22;4392;47.400;8.062;2022-09-12T04:06:09;17.30;99.90
8711;DHT22;4392;47.400;8.062;2022-09-12T04:08:36;17.20;99.90
8711;DHT22;4392;47.400;8.062;2022-09-12T04:11:07;17.10;99.90
8711;DHT22;4392;47.400;8.062;2022-09-12T04:13:34;17.10;99.90
8711;DHT22;4392;47.400;8.062;2022-09-12T04:16:00;17.10;99.90
8711;DHT22;4392;47.400;8.062;2022-09-12T04:18:27;17.10;99.90
8711;DHT22;4392;47.400;8.062;2022-09-12T04:20:53;17.10;99.90
8711;DHT22;4392;47.400;8.062;2022-09-12T04:23:19;17.10;99.90
8711;DHT22;4392;47.400;8.062;2022-09-12T04:25:55;17.10;99.90
8711;DHT22;4392;47.400;8.062;2022-09-12T04:28:21;17.00;99.90
8711;DHT22;4392;47.400;8.062;2022-09-12T04:30:47;17.00;99.90
8711;DHT22;4392;47.400;8.062;2022-09-12T04:33:13;17.00;99.90
8711;DHT22;4392;47.400;8.062;2022-09-12T04:35:39;17.00;99.90
8711;DHT22;4392;47.400;8.062;2022-09-12T04:38:06;17.00;99.90
8711;DHT22;4392;47.400;8.062;2022-09-12T04:40:32;17.00;99.90
8711;DHT22;4392;47.400;8.062;2022-09-12T04:42:58;17.00;99.90
8711;DHT22;4392;47.400;8.062;2022-09-12T04:45:24;17.00;99.90
8711;DHT22;4392;47.400;8.062;2022-09-12T04:47:50;17.00;99.90
8711;DHT22;4392;47.400;8.062;2022-09-12T04:50:16;16.90;99.90
8711;DHT22;4392;47.400;8.062;2022-09-12T04:52:47;16.90;99.90
8711;DHT22;4392;47.400;8.062;2022-09-12T04:55:13;17.00;99.90
8711;DHT22;4392;47.400;8.062;2022-09-12T04:57:39;17.80;99.90
8711;DHT22;4392;47.400;8.062;2022-09-12T05:00:05;18.20;99.90
8711;DHT22;4392;47.400;8.062;2022-09-12T05:02:32;18.40;99.90
8711;DHT22;4392;47.400;8.062;2022-09-12T05:04:58;18.60;99.90
8711;DHT22;4392;47.400;8.062;2022-09-12T05:07:24;18.60;99.90
8711;DHT22;4392;47.400;8.062;2022-09-12T05:09:52;18.70;99.90
8711;DHT22;4392;47.400;8.062;2022-09-12T05:12:19;18.70;99.90
8711;DHT22;4392;47.400;8.062;2022-09-12T05:14:45;18.70;99.90
8711;DHT22;4392;47.400;8.062;2022-09-12T05:17:13;18.80;99.90
8711;DHT22;4392;47.400;8.062;2022-09-12T05:19:39;18.80;99.90
8711;DHT22;4392;47.400;8.062;2022-09-12T05:22:05;18.70;99.90
8711;DHT22;4392;47.400;8.062;2022-09-12T05:24:31;18.30;99.60
8711;DHT22;4392;47.400;8.062;2022-09-12T05:26:57;18.00;99.90
8711;DHT22;4392;47.400;8.062;2022-09-12T05:29:24;17.70;99.90
8711;DHT22;4392;47.400;8.062;2022-09-12T05:31:50;17.50;99.90
8711;DHT22;4392;47.400;8.062;2022-09-12T05:34:18;17.40;99.90
8711;DHT22;4392;47.400;8.062;2022-09-12T05:36:45;17.30;99.90
8711;DHT22;4392;47.400;8.062;2022-09-12T05:39:11;17.30;99.90
8711;DHT22;4392;47.400;8.062;2022-09-12T05:41:37;17.30;99.90
8711;DHT22;4392;47.400;8.062;2022-09-12T05:44:05;17.30;99.90
8711;DHT22;4392;47.400;8.062;2022-09-12T05:46:42;17.30;99.90
8711;DHT22;4392;47.400;8.062;2022-09-12T05:49:10;17.20;99.90
8711;DHT22;4392;47.400;8.062;2022-09-12T05:51:41;17.30;99.90
8711;DHT22;4392;47.400;8.062;2022-09-12T05:54:09;17.70;99.90
8711;DHT22;4392;47.400;8.062;2022-09-12T05:56:38;18.10;99.90
8711;DHT22;4392;47.400;8.062;2022-09-12T05:59:10;17.90;99.90
8711;DHT22;4392;47.400;8.062;2022-09-12T06:01:37;17.70;99.90
8711;DHT22;4392;47.400;8.062;2022-09-12T06:04:05;17.60;99.90
8711;DHT22;4392;47.400;8.062;2022-09-12T06:06:35;17.40;99.90
8711;DHT22;4392;47.400;8.062;2022-09-12T06:09:03;17.30;99.90
8711;DHT22;4392;47.400;8.062;2022-09-12T06:11:31;17.20;99.90
8711;DHT22;4392;47.400;8.062;2022-09-12T06:13:58;17.20;99.90
8711;DHT22;4392;47.400;8.062;2022-09-12T06:16:30;17.00;99.90
8711;DHT22;4392;47.400;8.062;2022-09-12T06:19:00;17.00;99.90
8711;DHT22;4392;47.400;8.062;2022-09-12T06:21:28;17.10;99.90
8711;DHT22;4392;47.400;8.062;2022-09-12T06:24:05;17.20;99.90
8711;DHT22;4392;47.400;8.062;2022-09-12T06:26:32;17.20;99.90
8711;DHT22;4392;47.400;8.062;2022-09-12T06:29:00;17.40;99.90
8711;DHT22;4392;47.400;8.062;2022-09-12T06:31:31;17.30;99.90
8711;DHT22;4392;47.400;8.062;2022-09-12T06:34:04;17.40;99.90
8711;DHT22;4392;47.400;8.062;2022-09-12T06:36:49;17.40;99.90
8711;DHT22;4392;47.400;8.062;2022-09-12T06:39:20;17.40;99.90
8711;DHT22;4392;47.400;8.062;2022-09-12T06:41:50;17.40;99.90
8711;DHT22;4392;47.400;8.062;2022-09-12T06:44:19;17.40;99.90
8711;DHT22;4392;47.400;8.062;2022-09-12T06:46:45;17.30;99.90
8711;DHT22;4392;47.400;8.062;2022-09-12T06:49:12;17.30;99.90
8711;DHT22;4392;47.400;8.062;2022-09-12T06:51:38;17.40;99.90
8711;DHT22;4392;47.400;8.062;2022-09-12T06:54:04;17.30;99.90
8711;DHT22;4392;47.400;8.062;2022-09-12T06:56:30;17.30;99.90
8711;DHT22;4392;47.400;8.062;2022-09-12T06:58:57;17.30;99.90
8711;DHT22;4392;47.400;8.062;2022-09-12T07:01:28;17.30;99.90
8711;DHT22;4392;47.400;8.062;2022-09-12T07:03:59;17.30;99.90
8711;DHT22;4392;47.400;8.062;2022-09-12T07:06:30;17.40;99.90
8711;DHT22;4392;47.400;8.062;2022-09-12T07:09:00;17.40;99.90
8711;DHT22;4392;47.400;8.062;2022-09-12T07:11:30;17.50;99.90
8711;DHT22;4392;47.400;8.062;2022-09-12T07:13:59;17.50;99.90
8711;DHT22;4392;47.400;8.062;2022-09-12T07:16:26;17.50;99.90
8711;DHT22;4392;47.400;8.062;2022-09-12T07:18:57;17.50;99.90
8711;DHT22;4392;47.400;8.062;2022-09-12T07:21:23;17.60;99.90
8711;DHT22;4392;47.400;8.062;2022-09-12T07:23:49;17.60;99.90
8711;DHT22;4392;47.400;8.062;2022-09-12T07:26:39;17.60;99.90
8711;DHT22;4392;47.400;8.062;2022-09-12T07:29:07;17.60;99.90
8711;DHT22;4392;47.400;8.062;2022-09-12T07:31:37;17.50;99.90
8711;DHT22;4392;47.400;8.062;2022-09-12T07:34:05;17.60;99.90
8711;DHT22;4392;47.400;8.062;2022-09-12T07:36:31;17.70;99.90
8711;DHT22;4392;47.400;8.062;2022-09-12T07:38:57;17.70;99.90
8711;DHT22;4392;47.400;8.062;2022-09-12T07:41:32;17.70;99.90
8711;DHT22;4392;47.400;8.062;2022-09-12T07:44:03;17.70;99.90
8711;DHT22;4392;47.400;8.062;2022-09-12T07:46:31;17.60;99.90
8711;DHT22;4392;47.400;8.062;2022-09-12T07:48:58;17.60;99.90
8711;DHT22;4392;47.400;8.062;2022-09-12T07:51:26;17.70;99.90
8711;DHT22;4392;47.400;8.062;2022-09-12T07:53:52;17.70;99.90
8711;DHT22;4392;47.400;8.062;2022-09-12T07:56:19;17.70;99.90
8711;DHT22;4392;47.400;8.062;2022-09-12T07:58:46;17.80;99.90
8711;DHT22;4392;47.400;8.062;2022-09-12T08:01:17;17.80;99.90
8711;DHT22;4392;47.400;8.062;2022-09-12T08:03:45;17.80;99.90
8711;DHT22;4392;47.400;8.062;2022-09-12T08:06:14;17.80;99.90
8711;DHT22;4392;47.400;8.062;2022-09-12T08:08:41;17.90;99.90
8711;DHT22;4392;47.400;8.062;2022-09-12T08:11:10;17.90;99.90
8711;DHT22;4392;47.400;8.062;2022-09-12T08:13:38;17.90;99.90
8711;DHT22;4392;47.400;8.062;2022-09-12T08:16:11;17.90;99.90
8711;DHT22;4392;47.400;8.062;2022-09-12T08:18:38;17.90;99.90
8711;DHT22;4392;47.400;8.062;2022-09-12T08:23:40;18.00;99.90
8711;DHT22;4392;47.400;8.062;2022-09-12T08:26:09;17.80;99.90
8711;DHT22;4392;47.400;8.062;2022-09-12T08:28:42;17.90;99.90
8711;DHT22;4392;47.400;8.062;2022-09-12T08:31:11;18.00;99.90
8711;DHT22;4392;47.400;8.062;2022-09-12T08:33:38;18.20;99.90
8711;DHT22;4392;47.400;8.062;2022-09-12T08:36:08;18.20;99.90
8711;DHT22;4392;47.400;8.062;2022-09-12T08:38:35;18.20;99.90
8711;DHT22;4392;47.400;8.062;2022-09-12T08:49:44;18.30;99.90
8711;DHT22;4392;47.400;8.062;2022-09-12T08:54:57;18.30;99.90
8711;DHT22;4392;47.400;8.062;2022-09-12T08:57:23;18.30;99.90
8711;DHT22;4392;47.400;8.062;2022-09-12T08:59:50;18.30;99.90
8711;DHT22;4392;47.400;8.062;2022-09-12T09:02:29;18.40;99.90
8711;DHT22;4392;47.400;8.062;2022-09-12T09:10:46;19.30;99.90
8711;DHT22;4392;47.400;8.062;2022-09-12T09:13:20;19.00;99.90
8711;DHT22;4392;47.400;8.062;2022-09-12T09:16:21;18.90;99.90
8711;DHT22;4392;47.400;8.062;2022-09-12T09:18:49;18.60;99.90
8711;DHT22;4392;47.400;8.062;2022-09-12T09:21:28;18.60;99.90
8711;DHT22;4392;47.400;8.062;2022-09-12T09:24:14;18.70;99.90
8711;DHT22;4392;47.400;8.062;2022-09-12T09:26:53;18.80;99.90
8711;DHT22;4392;47.400;8.062;2022-09-12T09:29:32;18.80;99.90
8711;DHT22;4392;47.400;8.062;2022-09-12T09:32:03;19.20;99.90
8711;DHT22;4392;47.400;8.062;2022-09-12T09:34:34;19.20;99.90
8711;DHT22;4392;47.400;8.062;2022-09-12T09:37:19;19.20;99.90
8711;DHT22;4392;47.400;8.062;2022-09-12T09:43:15;19.10;99.90
8711;DHT22;4392;47.400;8.062;2022-09-12T09:45:36;19.10;99.90
8711;DHT22;4392;47.400;8.062;2022-09-12T09:50:57;19.10;99.90
8711;DHT22;4392;47.400;8.062;2022-09-12T09:56:01;19.10;99.90
8711;DHT22;4392;47.400;8.062;2022-09-12T09:58:35;19.10;99.90
8711;DHT22;4392;47.400;8.062;2022-09-12T10:01:05;19.00;99.90
8711;DHT22;4392;47.400;8.062;2022-09-12T10:03:37;19.00;99.90
8711;DHT22;4392;47.400;8.062;2022-09-12T10:06:25;19.10;99.90
8711;DHT22;4392;47.400;8.062;2022-09-12T10:09:04;19.20;99.90
8711;DHT22;4392;47.400;8.062;2022-09-12T10:11:31;19.10;99.90
8711;DHT22;4392;47.400;8.062;2022-09-12T10:13:58;19.00;99.90
8711;DHT22;4392;47.400;8.062;2022-09-12T10:16:34;19.20;99.90
8711;DHT22;4392;47.400;8.062;2022-09-12T10:19:24;19.20;99.90
8711;DHT22;4392;47.400;8.062;2022-09-12T10:21:59;19.20;99.90
8711;DHT22;4392;47.400;8.062;2022-09-12T10:24:45;19.30;99.90
8711;DHT22;4392;47.400;8.062;2022-09-12T10:27:18;19.50;99.90
8711;DHT22;4392;47.400;8.062;2022-09-12T10:29:59;19.30;99.90
8711;DHT22;4392;47.400;8.062;2022-09-12T10:35:04;19.30;99.90
8711;DHT22;4392;47.400;8.062;2022-09-12T10:37:37;19.30;99.90
8711;DHT22;4392;47.400;8.062;2022-09-12T10:40:26;19.30;99.90
8711;DHT22;4392;47.400;8.062;2022-09-12T10:42:54;19.30;99.90
8711;DHT22;4392;47.400;8.062;2022-09-12T10:45:29;19.40;99.90
8711;DHT22;4392;47.400;8.062;2022-09-12T10:47:57;19.40;99.90
8711;DHT22;4392;47.400;8.062;2022-09-12T10:53:21;20.00;99.90
8711;DHT22;4392;47.400;8.062;2022-09-12T10:56:02;20.00;99.90
8711;DHT22;4392;47.400;8.062;2022-09-12T11:01:56;20.20;99.90
8711;DHT22;4392;47.400;8.062;2022-09-12T11:35:27;20.00;99.90
8711;DHT22;4392;47.400;8.062;2022-09-12T11:40:53;20.10;99.60
8711;DHT22;4392;47.400;8.062;2022-09-12T11:51:37;20.20;99.90
8711;DHT22;4392;47.400;8.062;2022-09-12T11:54:13;20.20;98.00
8711;DHT22;4392;47.400;8.062;2022-09-12T11:56:45;20.20;97.50
8711;DHT22;4392;47.400;8.062;2022-09-12T12:01:59;20.30;96.40
8711;DHT22;4392;47.400;8.062;2022-09-12T12:04:36;20.30;96.60
8711;DHT22;4392;47.400;8.062;2022-09-12T12:07:09;20.30;95.30
8711;DHT22;4392;47.400;8.062;2022-09-12T12:09:52;20.30;95.20
8711;DHT22;4392;47.400;8.062;2022-09-12T12:12:23;20.40;95.40
8711;DHT22;4392;47.400;8.062;2022-09-12T12:14:51;20.50;95.20
8711;DHT22;4392;47.400;8.062;2022-09-12T12:17:19;20.40;94.70
8711;DHT22;4392;47.400;8.062;2022-09-12T12:19:55;20.40;94.50
8711;DHT22;4392;47.400;8.062;2022-09-12T12:22:23;20.40;94.20
8711;DHT22;4392;47.400;8.062;2022-09-12T12:38:39;20.70;92.70
8711;DHT22;4392;47.400;8.062;2022-09-12T12:43:45;20.90;93.20
8711;DHT22;4392;47.400;8.062;2022-09-12T12:46:13;21.00;91.90
8711;DHT22;4392;47.400;8.062;2022-09-12T12:48:52;21.10;92.20
8711;DHT22;4392;47.400;8.062;2022-09-12T12:53:49;21.20;90.80
8711;DHT22;4392;47.400;8.062;2022-09-12T12:56:48;21.30;89.30
8711;DHT22;4392;47.400;8.062;2022-09-12T12:59:21;21.40;89.70
8711;DHT22;4392;47.400;8.062;2022-09-12T13:01:54;21.40;88.90
8711;DHT22;4392;47.400;8.062;2022-09-12T13:04:25;21.40;88.50
8711;DHT22;4392;47.400;8.062;2022-09-12T13:07:05;21.50;87.20
8711;DHT22;4392;47.400;8.062;2022-09-12T13:09:53;21.60;86.90
8711;DHT22;4392;47.400;8.062;2022-09-12T13:12:35;21.70;86.50
8711;DHT22;4392;47.400;8.062;2022-09-12T13:15:27;21.70;85.60
8711;DHT22;4392;47.400;8.062;2022-09-12T13:17:49;21.80;85.10
8711;DHT22;4392;47.400;8.062;2022-09-12T13:20:25;22.10;82.50
8711;DHT22;4392;47.400;8.062;2022-09-12T13:22:58;22.10;81.50
8711;DHT22;4392;47.400;8.062;2022-09-12T13:25:34;22.20;88.30
8711;DHT22;4392;47.400;8.062;2022-09-12T13:30:44;22.50;80.90
8711;DHT22;4392;47.400;8.062;2022-09-12T13:33:38;22.70;78.40
8711;DHT22;4392;47.400;8.062;2022-09-12T13:39:16;22.80;76.80
8711;DHT22;4392;47.400;8.062;2022-09-12T13:44:23;23.00;72.90
8711;DHT22;4392;47.400;8.062;2022-09-12T13:46:51;23.10;71.90
8711;DHT22;4392;47.400;8.062;2022-09-12T13:49:32;23.40;71.90
8711;DHT22;4392;47.400;8.062;2022-09-12T13:52:06;23.50;72.10
8711;DHT22;4392;47.400;8.062;2022-09-12T13:54:37;23.50;74.20
8711;DHT22;4392;47.400;8.062;2022-09-12T13:57:05;23.60;74.90
8711;DHT22;4392;47.400;8.062;2022-09-12T13:59:38;23.70;74.70
8711;DHT22;4392;47.400;8.062;2022-09-12T14:02:24;23.80;73.30
8711;DHT22;4392;47.400;8.062;2022-09-12T14:04:51;23.90;70.10
8711;DHT22;4392;47.400;8.062;2022-09-12T14:07:55;24.00;70.70
8711;DHT22;4392;47.400;8.062;2022-09-12T14:10:34;24.10;70.20
8711;DHT22;4392;47.400;8.062;2022-09-12T14:13:02;24.20;69.30
8711;DHT22;4392;47.400;8.062;2022-09-12T14:15:31;24.30;70.30
8711;DHT22;4392;47.400;8.062;2022-09-12T14:18:02;24.40;70.20
8711;DHT22;4392;47.400;8.062;2022-09-12T14:20:30;24.60;71.50
8711;DHT22;4392;47.400;8.062;2022-09-12T14:23:18;24.70;72.30
8711;DHT22;4392;47.400;8.062;2022-09-12T14:25:46;24.90;72.40
8711;DHT22;4392;47.400;8.062;2022-09-12T14:28:15;24.90;70.50
8711;DHT22;4392;47.400;8.062;2022-09-12T14:31:06;25.00;68.90
8711;DHT22;4392;47.400;8.062;2022-09-12T14:33:51;25.00;70.60
8711;DHT22;4392;47.400;8.062;2022-09-12T14:38:48;25.20;69.30
8711;DHT22;4392;47.400;8.062;2022-09-12T14:41:42;25.30;68.70
8711;DHT22;4392;47.400;8.062;2022-09-12T14:44:14;25.40;69.00
8711;DHT22;4392;47.400;8.062;2022-09-12T14:46:42;25.40;69.70
8711;DHT22;4392;47.400;8.062;2022-09-12T14:49:33;25.50;68.80
8711;DHT22;4392;47.400;8.062;2022-09-12T14:52:05;25.60;64.80
8711;DHT22;4392;47.400;8.062;2022-09-12T14:57:16;25.80;61.10
8711;DHT22;4392;47.400;8.062;2022-09-12T14:59:51;25.90;62.00
8711;DHT22;4392;47.400;8.062;2022-09-12T15:05:13;26.10;64.50
8711;DHT22;4392;47.400;8.062;2022-09-12T15:07:59;26.10;63.50
8711;DHT22;4392;47.400;8.062;2022-09-12T15:10:34;26.10;63.50
8711;DHT22;4392;47.400;8.062;2022-09-12T15:13:14;26.10;61.20
8711;DHT22;4392;47.400;8.062;2022-09-12T15:15:54;26.00;61.70
8711;DHT22;4392;47.400;8.062;2022-09-12T15:18:23;25.90;61.40
8711;DHT22;4392;47.400;8.062;2022-09-12T15:21:03;25.90;59.80
8711;DHT22;4392;47.400;8.062;2022-09-12T15:23:48;25.80;61.10
8711;DHT22;4392;47.400;8.062;2022-09-12T15:26:16;25.80;62.10
8711;DHT22;4392;47.400;8.062;2022-09-12T15:28:43;25.90;60.80
8711;DHT22;4392;47.400;8.062;2022-09-12T15:31:23;26.10;61.10
8711;DHT22;4392;47.400;8.062;2022-09-12T15:33:51;26.30;59.90
8711;DHT22;4392;47.400;8.062;2022-09-12T15:36:18;26.40;60.40
8711;DHT22;4392;47.400;8.062;2022-09-12T15:38:46;26.40;60.40
8711;DHT22;4392;47.400;8.062;2022-09-12T15:41:28;26.20;62.40
8711;DHT22;4392;47.400;8.062;2022-09-12T15:43:55;26.30;62.30
8711;DHT22;4392;47.400;8.062;2022-09-12T15:46:21;26.30;63.00
8711;DHT22;4392;47.400;8.062;2022-09-12T15:48:47;26.50;61.60
8711;DHT22;4392;47.400;8.062;2022-09-12T15:51:18;26.50;60.80
8711;DHT22;4392;47.400;8.062;2022-09-12T15:53:44;26.60;61.00
8711;DHT22;4392;47.400;8.062;2022-09-12T15:56:11;26.50;61.50
8711;DHT22;4392;47.400;8.062;2022-09-12T15:58:36;26.60;61.10
8711;DHT22;4392;47.400;8.062;2022-09-12T16:01:03;26.70;61.90
8711;DHT22;4392;47.400;8.062;2022-09-12T16:03:30;26.90;62.90
8711;DHT22;4392;47.400;8.062;2022-09-12T16:05:58;27.00;63.30
8711;DHT22;4392;47.400;8.062;2022-09-12T16:08:31;27.00;62.90
8711;DHT22;4392;47.400;8.062;2022-09-12T16:11:11;27.00;62.00
8711;DHT22;4392;47.400;8.062;2022-09-12T16:13:38;27.30;58.90
8711;DHT22;4392;47.400;8.062;2022-09-12T16:16:04;27.10;61.80
8711;DHT22;4392;47.400;8.062;2022-09-12T16:18:29;27.20;61.20
8711;DHT22;4392;47.400;8.062;2022-09-12T16:20:57;27.30;58.70
8711;DHT22;4392;47.400;8.062;2022-09-12T16:23:23;27.40;57.60
8711;DHT22;4392;47.400;8.062;2022-09-12T16:25:59;27.60;57.60
8711;DHT22;4392;47.400;8.062;2022-09-12T16:28:26;27.60;57.70
8711;DHT22;4392;47.400;8.062;2022-09-12T16:30:56;27.70;57.30
8711;DHT22;4392;47.400;8.062;2022-09-12T16:33:22;27.80;57.50
8711;DHT22;4392;47.400;8.062;2022-09-12T16:35:48;27.80;58.10
8711;DHT22;4392;47.400;8.062;2022-09-12T16:38:16;27.70;59.30
8711;DHT22;4392;47.400;8.062;2022-09-12T16:40:42;27.60;58.10
8711;DHT22;4392;47.400;8.062;2022-09-12T16:43:08;27.60;58.00
8711;DHT22;4392;47.400;8.062;2022-09-12T16:45:34;27.70;57.10
8711;DHT22;4392;47.400;8.062;2022-09-12T16:47:59;27.70;57.00
8711;DHT22;4392;47.400;8.062;2022-09-12T16:50:25;27.70;56.50
8711;DHT22;4392;47.400;8.062;2022-09-12T16:52:54;27.70;56.00
8711;DHT22;4392;47.400;8.062;2022-09-12T16:55:20;27.70;54.70
8711;DHT22;4392;47.400;8.062;2022-09-12T16:57:46;27.80;55.00
8711;DHT22;4392;47.400;8.062;2022-09-12T17:00:14;27.70;57.00
8711;DHT22;4392;47.400;8.062;2022-09-12T17:02:39;27.50;58.60
8711;DHT22;4392;47.400;8.062;2022-09-12T17:05:06;27.10;60.90
8711;DHT22;4392;47.400;8.062;2022-09-12T17:07:31;27.00;61.50
8711;DHT22;4392;47.400;8.062;2022-09-12T17:09:59;26.90;62.20
8711;DHT22;4392;47.400;8.062;2022-09-12T17:12:25;27.00;62.50
8711;DHT22;4392;47.400;8.062;2022-09-12T17:14:51;26.90;62.20
8711;DHT22;4392;47.400;8.062;2022-09-12T17:17:17;26.80;62.40
8711;DHT22;4392;47.400;8.062;2022-09-12T17:19:43;26.60;63.60
8711;DHT22;4392;47.400;8.062;2022-09-12T17:22:11;26.50;64.90
8711;DHT22;4392;47.400;8.062;2022-09-12T17:24:37;26.40;65.70
8711;DHT22;4392;47.400;8.062;2022-09-12T17:27:02;26.30;65.90
8711;DHT22;4392;47.400;8.062;2022-09-12T17:29:28;26.20;66.30
8711;DHT22;4392;47.400;8.062;2022-09-12T17:31:54;26.10;67.40
8711;DHT22;4392;47.400;8.062;2022-09-12T17:34:20;26.00;68.50
8711;DHT22;4392;47.400;8.062;2022-09-12T17:36:46;25.90;68.80
8711;DHT22;4392;47.400;8.062;2022-09-12T17:39:13;25.90;69.40
8711;DHT22;4392;47.400;8.062;2022-09-12T17:41:40;25.80;70.20
8711;DHT22;4392;47.400;8.062;2022-09-12T17:44:12;25.70;70.80
8711;DHT22;4392;47.400;8.062;2022-09-12T17:46:41;25.60;70.70
8711;DHT22;4392;47.400;8.062;2022-09-12T17:49:11;25.50;70.70
8711;DHT22;4392;47.400;8.062;2022-09-12T17:51:38;25.50;71.10
8711;DHT22;4392;47.400;8.062;2022-09-12T17:54:12;25.40;71.10
8711;DHT22;4392;47.400;8.062;2022-09-12T17:56:40;25.40;70.80
8711;DHT22;4392;47.400;8.062;2022-09-12T17:59:15;25.40;70.60
8711;DHT22;4392;47.400;8.062;2022-09-12T18:01:41;25.30;71.20
8711;DHT22;4392;47.400;8.062;2022-09-12T18:04:26;25.20;71.90
8711;DHT22;4392;47.400;8.062;2022-09-12T18:06:52;25.20;71.60
8711;DHT22;4392;47.400;8.062;2022-09-12T18:09:20;25.00;71.90
8711;DHT22;4392;47.400;8.062;2022-09-12T18:11:47;24.90;72.30
8711;DHT22;4392;47.400;8.062;2022-09-12T18:14:14;24.90;72.30
8711;DHT22;4392;47.400;8.062;2022-09-12T18:16:40;24.90;72.80
8711;DHT22;4392;47.400;8.062;2022-09-12T18:19:07;24.70;73.00
8711;DHT22;4392;47.400;8.062;2022-09-12T18:21:32;24.70;73.00
8711;DHT22;4392;47.400;8.062;2022-09-12T18:23:59;24.70;72.50
8711;DHT22;4392;47.400;8.062;2022-09-12T18:26:26;24.70;73.00
8711;DHT22;4392;47.400;8.062;2022-09-12T18:28:52;24.70;72.90
8711;DHT22;4392;47.400;8.062;2022-09-12T18:31:21;24.60;73.40
8711;DHT22;4392;47.400;8.062;2022-09-12T18:33:48;24.60;74.20
8711;DHT22;4392;47.400;8.062;2022-09-12T18:36:17;24.50;75.50
8711;DHT22;4392;47.400;8.062;2022-09-12T18:38:43;24.50;76.10
8711;DHT22;4392;47.400;8.062;2022-09-12T18:41:15;24.40;73.90
8711;DHT22;4392;47.400;8.062;2022-09-12T18:43:41;24.40;75.20
8711;DHT22;4392;47.400;8.062;2022-09-12T18:46:13;24.20;76.10
8711;DHT22;4392;47.400;8.062;2022-09-12T18:48:39;24.20;76.90
8711;DHT22;4392;47.400;8.062;2022-09-12T18:53:36;24.20;77.10
8711;DHT22;4392;47.400;8.062;2022-09-12T18:56:05;24.10;77.30
8711;DHT22;4392;47.400;8.062;2022-09-12T18:58:35;24.00;77.80